createdAt,value
2022-09-12T00:00:12.392Z,101798.66
2022-09-12T00:00:50.609Z,101805.31
2022-09-12T00:01:28.466Z,101814.75
2022-09-12T00:02:04.937Z,101808.06
2022-09-12T00:03:12.560Z,101807.25
2022-09-12T00:03:50.212Z,101810.78
2022-09-12T00:04:26.954Z,101811.59
2022-09-12T00:05:01.474Z,101810.75
2022-09-12T00:05:46.403Z,101808.38
2022-09-12T00:06:34.353Z,101809.56
2022-09-12T00:07:17.762Z,101813.88
2022-09-12T00:07:51.770Z,101809.56
2022-09-12T00:08:25.412Z,101809.97
2022-09-12T00:09:03.997Z,101809.97
2022-09-12T00:09:38.441Z,101810.75
2022-09-12T00:10:14.489Z,101802.53
2022-09-12T00:10:56.434Z,101808.00
2022-09-12T00:11:28.511Z,101802.53
2022-09-12T00:12:02.679Z,101806.44
2022-09-12T00:12:47.781Z,101803.66
2022-09-12T00:13:19.304Z,101801.28
2022-09-12T00:13:50.860Z,101804.44
2022-09-12T00:14:31.496Z,101796.97
2022-09-12T00:15:17.999Z,101801.28
2022-09-12T00:15:52.186Z,101792.63
2022-09-12T00:16:38.530Z,101798.13
2022-09-12T00:18:03.899Z,101787.94
2022-09-12T00:18:57.698Z,101786.75
2022-09-12T00:19:35.612Z,101785.94
2022-09-12T00:20:13.474Z,101789.47
2022-09-12T00:20:56.721Z,101784.38
2022-09-12T00:21:40.387Z,101783.97
2022-09-12T00:22:15.360Z,101784.75
2022-09-12T00:22:49.018Z,101789.84
2022-09-12T00:23:28.493Z,101784.34
2022-09-12T00:24:11.937Z,101783.91
2022-09-12T00:24:49.239Z,101783.16
2022-09-12T00:25:29.666Z,101786.66
2022-09-12T00:26:12.899Z,101780.78
2022-09-12T00:26:53.817Z,101789.03
2022-09-12T00:27:31.209Z,101781.53
2022-09-12T00:28:12.189Z,101786.28
2022-09-12T00:28:56.048Z,101789.03
2022-09-12T00:29:34.202Z,101778.00
2022-09-12T00:30:09.380Z,101780.34
2022-09-12T00:30:45.259Z,101782.72
2022-09-12T00:31:23.520Z,101779.19
2022-09-12T00:32:00.022Z,101783.91
2022-09-12T00:32:39.771Z,101782.72
2022-09-12T00:33:13.965Z,101773.28
2022-09-12T00:33:50.853Z,101773.69
2022-09-12T00:34:24.704Z,101768.97
2022-09-12T00:35:23.902Z,101772.50
2022-09-12T00:36:00.767Z,101774.06
2022-09-12T00:36:32.462Z,101770.91
2022-09-12T00:37:21.556Z,101774.44
2022-09-12T00:37:55.591Z,101774.84
2022-09-12T00:38:27.301Z,101772.06
2022-09-12T00:39:07.467Z,101768.16
2022-09-12T00:39:39.523Z,101775.22
2022-09-12T00:40:17.184Z,101763.84
2022-09-12T00:40:53.789Z,101765.81
2022-09-12T00:41:31.414Z,101770.91
2022-09-12T00:42:13.592Z,101769.75
2022-09-12T00:42:45.385Z,101769.72
2022-09-12T00:43:41.243Z,101778.75
2022-09-12T00:44:20.864Z,101774.84
2022-09-12T00:44:54.080Z,101772.03
2022-09-12T00:45:39.557Z,101772.44
2022-09-12T00:46:31.119Z,101772.06
2022-09-12T00:47:15.448Z,101761.44
2022-09-12T00:48:06.248Z,101771.25
2022-09-12T00:49:15.421Z,101774.00
2022-09-12T00:50:03.306Z,101765.72
2022-09-12T00:50:42.377Z,101759.44
2022-09-12T00:51:23.323Z,101770.03
2022-09-12T00:52:28.811Z,101766.09
2022-09-12T00:53:20.801Z,101768.06
2022-09-12T00:53:57.129Z,101759.44
2022-09-12T00:54:42.527Z,101768.44
2022-09-12T00:55:32.701Z,101763.34
2022-09-12T00:56:11.779Z,101765.28
2022-09-12T00:56:47.218Z,101757.06
2022-09-12T00:57:27.383Z,101757.81
2022-09-12T00:58:13.698Z,101757.44
2022-09-12T00:59:10.530Z,101757.81
2022-09-12T01:00:04.860Z,101766.41
2022-09-12T01:00:41.626Z,101756.25
2022-09-12T01:01:18.323Z,101761.31
2022-09-12T01:01:55.616Z,101756.19
2022-09-12T01:02:32.828Z,101769.16
2022-09-12T01:03:12.582Z,101765.59
2022-09-12T01:03:44.798Z,101759.31
2022-09-12T01:04:21.956Z,101763.22
2022-09-12T01:04:59.619Z,101759.69
2022-09-12T01:05:45.457Z,101760.84
2022-09-12T01:06:35.385Z,101760.06
2022-09-12T01:07:21.719Z,101760.06
2022-09-12T01:08:05.727Z,101759.25
2022-09-12T01:08:41.304Z,101752.19
2022-09-12T01:09:26.875Z,101753.78
2022-09-12T01:10:09.873Z,101763.97
2022-09-12T01:10:52.616Z,101752.19
2022-09-12T01:11:32.700Z,101757.69
2022-09-12T01:12:11.012Z,101754.56
2022-09-12T01:12:46.277Z,101760.78
2022-09-12T01:13:26.322Z,101759.25
2022-09-12T01:14:03.699Z,101757.63
2022-09-12T01:14:38.639Z,101756.84
2022-09-12T01:15:30.233Z,101752.16
2022-09-12T01:16:17.203Z,101762.75
2022-09-12T01:16:52.793Z,101753.69
2022-09-12T01:17:39.789Z,101761.13
2022-09-12T01:18:32.090Z,101758.00
2022-09-12T01:19:40.268Z,101758.44
2022-09-12T01:20:33.159Z,101764.66
2022-09-12T01:21:52.237Z,101766.59
2022-09-12T01:22:57.285Z,101756.72
2022-09-12T01:23:51.847Z,101763.03
2022-09-12T01:24:44.149Z,101764.97
2022-09-12T01:25:36.104Z,101752.78
2022-09-12T01:27:20.833Z,101752.00
2022-09-12T01:28:18.850Z,101759.47
2022-09-12T01:29:15.618Z,101757.44
2022-09-12T01:30:05.681Z,101748.09
2022-09-12T01:30:59.394Z,101753.97
2022-09-12T01:32:10.383Z,101748.03
2022-09-12T01:33:29.345Z,101756.66
2022-09-12T01:34:19.789Z,101748.38
2022-09-12T01:35:04.371Z,101744.84
2022-09-12T01:35:57.935Z,101748.03
2022-09-12T01:37:22.176Z,101738.91
2022-09-12T01:38:46.655Z,101747.97
2022-09-12T01:39:37.265Z,101745.19
2022-09-12T01:40:43.853Z,101747.13
2022-09-12T01:41:37.341Z,101749.91
2022-09-12T01:42:32.283Z,101750.28
2022-09-12T01:43:27.297Z,101738.91
2022-09-12T01:44:24.840Z,101739.66
2022-09-12T01:45:23.168Z,101744.81
2022-09-12T01:46:27.256Z,101741.66
2022-09-12T01:47:32.121Z,101740.88
2022-09-12T01:48:18.396Z,101734.94
2022-09-12T01:49:06.086Z,101733.41
2022-09-12T01:50:11.242Z,101741.25
2022-09-12T01:51:11.012Z,101731.44
2022-09-12T01:51:53.072Z,101736.13
2022-09-12T01:52:54.088Z,101740.44
2022-09-12T01:53:47.998Z,101726.31
2022-09-12T01:54:26.189Z,101737.28
2022-09-12T01:55:25.338Z,101733.75
2022-09-12T01:56:21.718Z,101729.84
2022-09-12T01:57:01.844Z,101725.16
2022-09-12T01:59:11.623Z,101719.63
2022-09-12T02:00:00.856Z,101725.13
2022-09-12T02:00:46.858Z,101719.63
2022-09-12T02:01:35.360Z,101722.00
2022-09-12T02:02:21.820Z,101719.59
2022-09-12T02:03:16.260Z,101719.63
2022-09-12T02:03:57.879Z,101711.78
2022-09-12T02:05:02.468Z,101714.91
2022-09-12T02:05:41.600Z,101717.28
2022-09-12T02:06:29.003Z,101718.44
2022-09-12T02:07:35.940Z,101709.41
2022-09-12T02:08:19.717Z,101721.16
2022-09-12T02:09:04.891Z,101707.75
2022-09-12T02:09:54.390Z,101710.16
2022-09-12T02:10:38.334Z,101712.13
2022-09-12T02:11:12.280Z,101710.88
2022-09-12T02:11:52.529Z,101706.56
2022-09-12T02:12:31.682Z,101706.19
2022-09-12T02:13:39.804Z,101700.72
2022-09-12T02:14:23.535Z,101698.75
2022-09-12T02:15:07.292Z,101706.63
2022-09-12T02:15:49.518Z,101703.09
2022-09-12T02:16:45.383Z,101708.13
2022-09-12T02:17:31.574Z,101704.59
2022-09-12T02:18:10.812Z,101700.28
2022-09-12T02:18:53.958Z,101697.56
2022-09-12T02:19:47.866Z,101699.50
2022-09-12T02:20:49.216Z,101701.44
2022-09-12T02:21:35.950Z,101702.25
2022-09-12T02:22:21.473Z,101706.94
2022-09-12T02:23:04.804Z,101709.66
2022-09-12T02:23:49.663Z,101706.94
2022-09-12T02:24:31.882Z,101704.97
2022-09-12T02:25:14.676Z,101699.47
2022-09-12T02:25:56.727Z,101704.56
2022-09-12T02:26:44.239Z,101710.03
2022-09-12T02:27:31.832Z,101708.44
2022-09-12T02:28:17.867Z,101700.66
2022-09-12T02:28:54.121Z,101700.22
2022-09-12T02:29:36.107Z,101707.66
2022-09-12T02:30:13.638Z,101700.59
2022-09-12T02:31:04.501Z,101699.03
2022-09-12T02:31:52.088Z,101702.13
2022-09-12T02:32:37.384Z,101705.34
2022-09-12T02:33:26.779Z,101694.69
2022-09-12T02:34:27.672Z,101707.66
2022-09-12T02:35:34.402Z,101693.50
2022-09-12T02:36:24.412Z,101697.38
2022-09-12T02:37:13.419Z,101707.59
2022-09-12T02:38:17.592Z,101711.91
2022-09-12T02:38:52.528Z,101699.72
2022-09-12T02:39:32.104Z,101698.13
2022-09-12T02:40:10.330Z,101695.41
2022-09-12T02:40:49.073Z,101700.88
2022-09-12T02:41:36.264Z,101698.13
2022-09-12T02:42:16.238Z,101695.41
2022-09-12T02:42:50.984Z,101694.97
2022-09-12T02:43:29.201Z,101696.13
2022-09-12T02:44:08.447Z,101695.75
2022-09-12T02:44:53.404Z,101691.06
2022-09-12T02:45:32.160Z,101698.50
2022-09-12T02:46:11.862Z,101693.81
2022-09-12T02:46:53.799Z,101688.28
2022-09-12T02:47:43.239Z,101691.03
2022-09-12T02:48:36.867Z,101684.78
2022-09-12T02:50:17.215Z,101687.56
2022-09-12T02:50:55.845Z,101686.75
2022-09-12T02:51:30.623Z,101686.34
2022-09-12T02:52:08.020Z,101678.53
2022-09-12T02:52:45.672Z,101680.06
2022-09-12T02:53:22.950Z,101676.97
2022-09-12T02:54:05.642Z,101675.41
2022-09-12T02:54:46.270Z,101675.41
2022-09-12T02:55:20.613Z,101680.13
2022-09-12T02:56:00.724Z,101676.19
2022-09-12T02:56:37.491Z,101674.59
2022-09-12T02:57:22.579Z,101674.66
2022-09-12T02:57:57.112Z,101682.06
2022-09-12T02:58:33.872Z,101680.06
2022-09-12T02:59:17.827Z,101685.97
2022-09-12T03:00:05.013Z,101679.31
2022-09-12T03:00:53.959Z,101674.59
2022-09-12T03:01:27.945Z,101684.44
2022-09-12T03:02:19.514Z,101677.34
2022-09-12T03:03:05.920Z,101678.56
2022-09-12T03:04:08.988Z,101674.59
2022-09-12T03:05:25.672Z,101671.06
2022-09-12T03:06:29.043Z,101678.09
2022-09-12T03:08:57.899Z,101679.25
2022-09-12T03:10:03.145Z,101673.00
2022-09-12T03:11:21.295Z,101667.47
2022-09-12T03:12:21.576Z,101676.09
2022-09-12T03:13:01.175Z,101669.84
2022-09-12T03:13:56.113Z,101669.06
2022-09-12T03:14:55.076Z,101672.13
2022-09-12T03:16:04.253Z,101668.28
2022-09-12T03:17:23.993Z,101677.63
2022-09-12T03:18:52.616Z,101665.44
2022-09-12T03:21:20.233Z,101666.97
2022-09-12T03:23:41.309Z,101661.47
2022-09-12T03:24:49.159Z,101669.31
2022-09-12T03:25:53.674Z,101662.63
2022-09-12T03:27:01.097Z,101670.50
2022-09-12T03:27:54.146Z,101669.69
2022-09-12T03:28:35.362Z,101665.78
2022-09-12T03:29:22.827Z,101669.69
2022-09-12T03:30:07.897Z,101668.88
2022-09-12T03:30:53.877Z,101670.06
2022-09-12T03:31:28.053Z,101668.88
2022-09-12T03:32:08.199Z,101661.03
2022-09-12T03:32:47.474Z,101672.00
2022-09-12T03:33:33.595Z,101669.28
2022-09-12T03:34:15.447Z,101657.94
2022-09-12T03:34:53.268Z,101664.16
2022-09-12T03:35:25.692Z,101662.19
2022-09-12T03:36:04.282Z,101663.00
2022-09-12T03:36:41.097Z,101657.88
2022-09-12T03:37:18.128Z,101654.78
2022-09-12T03:37:53.270Z,101662.56
2022-09-12T03:38:36.007Z,101666.50
2022-09-12T03:39:12.836Z,101666.09
2022-09-12T03:39:57.314Z,101660.19
2022-09-12T03:40:49.315Z,101660.19
2022-09-12T03:41:25.677Z,101659.00
2022-09-12T03:42:12.616Z,101662.53
2022-09-12T03:42:46.352Z,101655.47
2022-09-12T03:43:37.232Z,101662.09
2022-09-12T03:44:11.857Z,101658.19
2022-09-12T03:44:53.396Z,101662.94
2022-09-12T03:45:29.628Z,101658.19
2022-09-12T03:46:01.365Z,101655.03
2022-09-12T03:46:40.982Z,101657.00
2022-09-12T03:47:15.653Z,101658.63
2022-09-12T03:47:49.702Z,101666.03
2022-09-12T03:48:26.868Z,101658.56
2022-09-12T03:49:04.845Z,101668.00
2022-09-12T03:49:53.800Z,101657.78
2022-09-12T03:50:28.024Z,101663.69
2022-09-12T03:51:14.990Z,101662.53
2022-09-12T03:51:49.301Z,101653.88
2022-09-12T03:52:28.350Z,101659.38
2022-09-12T03:53:06.145Z,101658.63
2022-09-12T03:53:40.584Z,101664.09
2022-09-12T03:54:16.613Z,101657.41
2022-09-12T03:54:55.934Z,101655.03
2022-09-12T03:55:35.682Z,101655.84
2022-09-12T03:56:18.628Z,101657.84
2022-09-12T03:56:52.784Z,101654.69
2022-09-12T03:57:31.321Z,101651.88
2022-09-12T03:58:10.382Z,101650.31
2022-09-12T03:58:58.048Z,101651.09
2022-09-12T03:59:32.907Z,101656.19
2022-09-12T04:00:19.052Z,101648.38
2022-09-12T04:00:56.588Z,101647.56
2022-09-12T04:01:30.515Z,101644.41
2022-09-12T04:02:17.189Z,101644.41
2022-09-12T04:02:50.760Z,101636.19
2022-09-12T04:03:30.507Z,101639.28
2022-09-12T04:04:04.712Z,101641.66
2022-09-12T04:04:53.602Z,101639.28
2022-09-12T04:05:37.533Z,101640.88
2022-09-12T04:06:10.637Z,101639.28
2022-09-12T04:06:49.532Z,101640.50
2022-09-12T04:07:25.151Z,101637.34
2022-09-12T04:08:09.432Z,101644.75
2022-09-12T04:08:44.876Z,101630.28
2022-09-12T04:09:17.576Z,101635.81
2022-09-12T04:09:53.827Z,101634.63
2022-09-12T04:10:28.271Z,101625.63
2022-09-12T04:11:15.212Z,101633.84
2022-09-12T04:11:49.284Z,101632.66
2022-09-12T04:12:34.050Z,101631.09
2022-09-12T04:13:14.612Z,101625.63
2022-09-12T04:13:52.419Z,101631.09
2022-09-12T04:14:28.876Z,101627.19
2022-09-12T04:15:16.160Z,101647.56
2022-09-12T04:16:09.481Z,101640.50
2022-09-12T04:16:50.689Z,101634.59
2022-09-12T04:17:25.292Z,101635.75
2022-09-12T04:18:30.351Z,101634.97
2022-09-12T04:19:06.638Z,101644.75
2022-09-12T04:19:50.369Z,101646.34
2022-09-12T04:20:28.392Z,101642.41
2022-09-12T04:21:07.082Z,101635.75
2022-09-12T04:21:45.550Z,101643.59
2022-09-12T04:22:22.607Z,101643.97
2022-09-12T04:23:05.793Z,101642.03
2022-09-12T04:23:44.798Z,101639.28
2022-09-12T04:24:19.225Z,101641.25
2022-09-12T04:25:00.404Z,101642.03
2022-09-12T04:25:36.548Z,101647.53
2022-09-12T04:26:16.515Z,101634.25
2022-09-12T04:27:07.748Z,101645.56
2022-09-12T04:27:47.319Z,101633.81
2022-09-12T04:28:37.535Z,101652.63
2022-09-12T04:29:23.417Z,101642.03
2022-09-12T04:30:10.438Z,101635.34
2022-09-12T04:30:44.373Z,101636.94
2022-09-12T04:31:27.473Z,101639.66
2022-09-12T04:32:01.678Z,101637.28
2022-09-12T04:32:40.833Z,101641.25
2022-09-12T04:33:12.342Z,101638.88
2022-09-12T04:33:47.158Z,101641.59
2022-09-12T04:34:18.806Z,101633.41
2022-09-12T04:34:52.304Z,101645.56
2022-09-12T04:35:24.043Z,101637.72
2022-09-12T04:35:55.685Z,101634.19
2022-09-12T04:36:28.765Z,101639.66
2022-09-12T04:37:00.569Z,101642.44
2022-09-12T04:37:32.029Z,101640.50
2022-09-12T04:38:03.575Z,101643.25
2022-09-12T04:38:36.502Z,101636.56
2022-09-12T04:39:08.345Z,101640.91
2022-09-12T04:39:40.003Z,101640.09
2022-09-12T04:40:11.591Z,101647.53
2022-09-12T04:40:43.368Z,101642.44
2022-09-12T04:41:18.472Z,101642.06
2022-09-12T04:41:50.121Z,101629.56
2022-09-12T04:42:23.074Z,101637.34
2022-09-12T04:42:56.189Z,101632.66
2022-09-12T04:43:28.165Z,101632.66
2022-09-12T04:44:04.897Z,101638.13
2022-09-12T04:44:38.700Z,101636.97
2022-09-12T04:45:10.560Z,101639.72
2022-09-12T04:45:42.104Z,101633.44
2022-09-12T04:46:16.673Z,101633.09
2022-09-12T04:46:48.300Z,101635.81
2022-09-12T04:47:20.165Z,101633.09
2022-09-12T04:47:52.453Z,101628.78
2022-09-12T04:48:27.089Z,101631.09
2022-09-12T04:48:58.733Z,101631.91
2022-09-12T04:49:30.246Z,101631.53
2022-09-12T04:50:01.914Z,101640.16
2022-09-12T04:50:33.538Z,101635.84
2022-09-12T04:51:14.774Z,101638.16
2022-09-12T04:51:49.314Z,101638.22
2022-09-12T04:52:27.688Z,101628.78
2022-09-12T04:53:08.866Z,101633.47
2022-09-12T04:53:45.759Z,101633.91
2022-09-12T04:54:22.169Z,101638.59
2022-09-12T04:54:56.759Z,101643.69
2022-09-12T04:55:35.752Z,101634.31
2022-09-12T04:56:14.415Z,101646.06
2022-09-12T04:56:48.928Z,101631.16
2022-09-12T04:57:20.732Z,101630.38
2022-09-12T04:57:52.999Z,101631.59
2022-09-12T04:58:26.190Z,101635.91
2022-09-12T04:59:09.736Z,101642.94
2022-09-12T04:59:41.491Z,101637.06
2022-09-12T05:00:16.052Z,101644.94
2022-09-12T05:00:49.701Z,101630.44
2022-09-12T05:01:22.995Z,101643.38
2022-09-12T05:01:56.025Z,101641.00
2022-09-12T05:02:28.976Z,101635.16
2022-09-12T05:03:02.681Z,101639.09
2022-09-12T05:03:34.743Z,101635.56
2022-09-12T05:04:06.344Z,101634.38
2022-09-12T05:04:40.738Z,101639.47
2022-09-12T05:05:12.573Z,101635.94
2022-09-12T05:05:44.312Z,101638.69
2022-09-12T05:06:19.236Z,101649.31
2022-09-12T05:06:50.744Z,101633.63
2022-09-12T05:07:28.376Z,101636.38
2022-09-12T05:08:00.092Z,101637.94
2022-09-12T05:08:31.754Z,101630.53
2022-09-12T05:09:05.385Z,101638.38
2022-09-12T05:09:42.451Z,101632.91
2022-09-12T05:10:18.191Z,101633.31
2022-09-12T05:10:54.433Z,101639.16
2022-09-12T05:12:02.158Z,101640.75
2022-09-12T05:42:56.133Z,101627.97
2022-09-12T05:43:27.694Z,101622.47
2022-09-12T05:44:07.091Z,101628.38
2022-09-12T05:44:38.580Z,101622.91
2022-09-12T05:45:10.175Z,101627.22
2022-09-12T05:45:42.138Z,101628.78
2022-09-12T05:46:16.409Z,101627.63
2022-09-12T05:46:50.778Z,101633.09
2022-09-12T05:57:12.865Z,101627.69
2022-09-12T06:32:12.186Z,101634.09
2022-09-12T06:32:43.623Z,101634.09
2022-09-12T06:33:15.587Z,101636.47
2022-09-12T06:33:49.986Z,101641.56
2022-09-12T06:34:21.446Z,101636.88
2022-09-12T06:34:52.830Z,101638.47
2022-09-12T06:37:25.797Z,101643.53
2022-09-12T06:37:57.179Z,101640.41
2022-09-12T06:39:48.772Z,101645.16
2022-09-12T06:40:20.345Z,101635.00
2022-09-12T06:41:32.476Z,101632.31
2022-09-12T06:42:03.969Z,101641.34
2022-09-12T06:42:35.447Z,101636.63
2022-09-12T06:43:07.015Z,101639.00
2022-09-12T06:43:39.905Z,101635.09
2022-09-12T06:44:17.818Z,101635.91
2022-09-12T06:44:50.422Z,101633.56
2022-09-12T06:45:22.778Z,101632.78
2022-09-12T06:45:54.289Z,101636.69
2022-09-12T06:46:27.105Z,101633.16
2022-09-12T06:46:58.754Z,101630.41
2022-09-12T06:47:30.242Z,101628.47
2022-09-12T06:48:02.655Z,101633.56
2022-09-12T06:48:38.325Z,101626.16
2022-09-12T06:49:13.352Z,101634.00
2022-09-12T06:49:44.771Z,101628.88
2022-09-12T06:50:16.264Z,101630.09
2022-09-12T06:51:02.403Z,101633.22
2022-09-12T06:51:36.210Z,101632.41
2022-09-12T06:52:07.605Z,101632.84
2022-09-12T06:52:39.058Z,101630.09
2022-09-12T06:53:10.471Z,101627.34
2022-09-12T06:53:44.212Z,101629.72
2022-09-12T06:54:17.019Z,101629.34
2022-09-12T06:54:49.086Z,101622.72
2022-09-12T06:55:23.573Z,101624.28
2022-09-12T06:56:00.713Z,101630.19
2022-09-12T06:56:32.241Z,101626.28
2022-09-12T06:57:03.854Z,101625.91
2022-09-12T06:57:36.976Z,101620.03
2022-09-12T06:58:08.438Z,101620.47
2022-09-12T06:58:40.964Z,101619.66
2022-09-12T06:59:12.746Z,101625.19
2022-09-12T06:59:44.825Z,101621.25
2022-09-12T07:00:16.371Z,101619.31
2022-09-12T07:00:47.790Z,101616.19
2022-09-12T07:01:21.946Z,101623.25
2022-09-12T07:01:53.532Z,101617.38
2022-09-12T07:02:25.745Z,101618.19
2022-09-12T07:02:57.224Z,101617.81
2022-09-12T07:03:29.138Z,101617.06
2022-09-12T07:04:03.821Z,101611.19
2022-09-12T07:04:36.618Z,101615.50
2022-09-12T07:05:09.093Z,101619.84
2022-09-12T07:05:40.500Z,101621.03
2022-09-12T07:06:13.767Z,101621.81
2022-09-12T07:06:45.167Z,101616.75
2022-09-12T07:07:16.755Z,101615.56
2022-09-12T07:08:00.267Z,101618.31
2022-09-12T07:08:37.140Z,101615.22
2022-09-12T07:09:18.477Z,101621.88
2022-09-12T07:09:52.541Z,101616.03
2022-09-12T07:10:31.309Z,101621.94
2022-09-12T07:11:20.807Z,101620.38
2022-09-12T07:11:52.227Z,101617.25
2022-09-12T07:12:23.599Z,101619.63
2022-09-12T07:12:55.041Z,101620.78
2022-09-12T07:13:27.150Z,101629.06
2022-09-12T07:14:03.198Z,101626.72
2022-09-12T07:14:34.679Z,101618.53
2022-09-12T07:15:06.684Z,101624.03
2022-09-12T07:15:38.233Z,101622.50
2022-09-12T07:16:17.311Z,101629.19
2022-09-12T07:16:50.804Z,101623.28
2022-09-12T07:17:22.256Z,101624.84
2022-09-12T07:17:54.523Z,101624.88
2022-09-12T07:18:26.061Z,101621.75
2022-09-12T07:19:02.364Z,101621.78
2022-09-12T07:19:37.013Z,101625.72
2022-09-12T07:20:08.712Z,101614.38
2022-09-12T07:20:40.673Z,101621.06
2022-09-12T07:21:14.869Z,101622.63
2022-09-12T07:21:46.352Z,101622.63
2022-09-12T07:22:17.711Z,101621.09
2022-09-12T07:22:50.575Z,101621.09
2022-09-12T07:23:21.969Z,101626.56
2022-09-12T07:23:55.237Z,101624.22
2022-09-12T07:24:27.168Z,101620.31
2022-09-12T07:24:59.025Z,101617.59
2022-09-12T07:25:30.462Z,101622.69
2022-09-12T07:26:02.562Z,101630.16
2022-09-12T07:26:34.525Z,101627.81
2022-09-12T07:27:05.887Z,101626.66
2022-09-12T07:27:37.743Z,101626.66
2022-09-12T07:28:09.137Z,101627.09
2022-09-12T07:28:40.998Z,101627.88
2022-09-12T07:30:08.643Z,101626.69
2022-09-12T07:30:40.468Z,101625.16
2022-09-12T07:31:17.671Z,101626.72
2022-09-12T07:31:49.595Z,101625.16
2022-09-12T07:32:23.538Z,101622.84
2022-09-12T07:32:55.062Z,101624.03
2022-09-12T07:33:29.598Z,101620.91
2022-09-12T07:34:08.251Z,101622.09
2022-09-12T07:34:40.622Z,101619.72
2022-09-12T07:35:12.159Z,101618.16
2022-09-12T07:35:47.692Z,101619.34
2022-09-12T07:36:23.493Z,101622.13
2022-09-12T07:36:58.101Z,101620.97
2022-09-12T07:37:32.202Z,101623.72
2022-09-12T07:38:04.073Z,101615.47
2022-09-12T07:38:35.533Z,101616.66
2022-09-12T07:39:06.958Z,101618.25
2022-09-12T07:39:38.614Z,101621.00
2022-09-12T07:40:11.802Z,101611.22
2022-09-12T07:40:43.895Z,101617.50
2022-09-12T07:41:21.629Z,101619.88
2022-09-12T07:41:53.157Z,101608.88
2022-09-12T07:42:24.696Z,101609.28
2022-09-12T07:42:58.605Z,101613.19
2022-09-12T07:43:34.023Z,101612.00
2022-09-12T07:44:10.690Z,101611.63
2022-09-12T07:44:42.237Z,101613.59
2022-09-12T07:45:13.815Z,101616.34
2022-09-12T07:45:45.272Z,101615.56
2022-09-12T07:46:16.791Z,101610.47
2022-09-12T07:46:48.171Z,101616.75
2022-09-12T07:47:22.591Z,101609.31
2022-09-12T07:47:59.276Z,101616.78
2022-09-12T07:48:30.870Z,101614.03
2022-09-12T07:49:03.250Z,101618.34
2022-09-12T07:49:35.124Z,101614.00
2022-09-12T07:50:07.071Z,101624.22
2022-09-12T07:50:42.026Z,101621.09
2022-09-12T07:51:17.439Z,101618.75
2022-09-12T07:51:50.780Z,101617.56
2022-09-12T07:52:22.255Z,101623.84
2022-09-12T07:52:55.047Z,101614.44
2022-09-12T07:53:30.761Z,101616.81
2022-09-12T07:54:07.104Z,101616.00
2022-09-12T07:54:38.760Z,101612.47
2022-09-12T07:55:10.162Z,101616.00
2022-09-12T07:55:41.720Z,101622.69
2022-09-12T07:56:13.709Z,101618.38
2022-09-12T07:56:45.792Z,101618.00
2022-09-12T07:57:17.268Z,101616.81
2022-09-12T07:57:53.827Z,101621.13
2022-09-12T07:58:25.640Z,101621.56
2022-09-12T07:58:57.245Z,101616.06
2022-09-12T07:59:50.914Z,101624.72
2022-09-12T08:00:20.330Z,101619.56
2022-09-12T08:00:54.268Z,101622.72
2022-09-12T08:01:26.458Z,101620.38
2022-09-12T08:02:06.603Z,101619.97
2022-09-12T08:02:39.517Z,101618.00
2022-09-12T08:03:11.102Z,101617.63
2022-09-12T08:03:44.715Z,101615.66
2022-09-12T08:04:18.512Z,101622.34
2022-09-12T08:04:51.439Z,101619.22
2022-09-12T08:05:23.103Z,101616.06
2022-09-12T08:05:54.834Z,101617.25
2022-09-12T08:06:38.681Z,101628.25
2022-09-12T08:07:15.950Z,101622.72
2022-09-12T08:07:47.610Z,101619.56
2022-09-12T08:08:18.984Z,101625.47
2022-09-12T08:08:51.687Z,101623.13
2022-09-12T08:09:23.078Z,101616.84
2022-09-12T08:09:54.524Z,101621.56
2022-09-12T08:10:25.962Z,101628.22
2022-09-12T08:10:59.865Z,101619.94
2022-09-12T08:11:31.339Z,101625.44
2022-09-12T08:12:03.284Z,101621.91
2022-09-12T08:12:35.171Z,101626.25
2022-09-12T08:13:08.755Z,101626.25
2022-09-12T08:13:43.036Z,101623.50
2022-09-12T08:14:14.577Z,101622.69
2022-09-12T08:14:46.543Z,101615.59
2022-09-12T08:15:17.929Z,101618.72
2022-09-12T08:15:49.414Z,101623.44
2022-09-12T08:16:22.237Z,101619.13
2022-09-12T08:16:53.661Z,101614.41
2022-09-12T08:17:25.082Z,101619.09
2022-09-12T08:17:56.456Z,101610.81
2022-09-12T08:18:29.639Z,101624.56
2022-09-12T08:19:02.435Z,101615.53
2022-09-12T08:19:33.872Z,101623.00
2022-09-12T08:20:05.733Z,101623.00
2022-09-12T08:20:37.446Z,101616.25
2022-09-12T08:21:23.998Z,101617.03
2022-09-12T08:21:55.358Z,101619.41
2022-09-12T08:22:26.729Z,101616.25
2022-09-12T08:22:58.154Z,101620.59
2022-09-12T08:23:30.255Z,101623.28
2022-09-12T08:24:04.071Z,101628.41
2022-09-12T08:24:35.542Z,101628.78
2022-09-12T08:25:07.429Z,101622.88
2022-09-12T08:25:38.819Z,101628.78
2022-09-12T08:26:11.499Z,101624.84
2022-09-12T08:26:43.234Z,101624.44
2022-09-12T08:27:14.855Z,101629.53
2022-09-12T08:27:46.876Z,101625.19
2022-09-12T08:28:18.337Z,101625.56
2022-09-12T08:28:50.003Z,101622.41
2022-09-12T08:29:21.506Z,101622.41
2022-09-12T08:29:53.660Z,101620.81
2022-09-12T08:30:25.097Z,101621.59
2022-09-12T08:31:12.987Z,101621.19
2022-09-12T08:31:44.554Z,101618.81
2022-09-12T08:32:15.974Z,101621.91
2022-09-12T08:32:47.354Z,101624.28
2022-09-12T08:33:19.403Z,101619.94
2022-09-12T08:33:51.178Z,101616.78
2022-09-12T08:34:22.721Z,101624.25
2022-09-12T08:34:54.118Z,101615.19
2022-09-12T08:35:25.432Z,101620.66
2022-09-12T08:36:05.678Z,101618.28
2022-09-12T08:36:37.069Z,101619.44
2022-09-12T08:37:08.448Z,101621.38
2022-09-12T08:37:40.528Z,101620.97
2022-09-12T08:38:11.940Z,101624.13
2022-09-12T08:38:45.646Z,101619.00
2022-09-12T08:39:17.118Z,101618.59
2022-09-12T08:39:48.613Z,101618.19
2022-09-12T08:40:20.134Z,101617.38
2022-09-12T08:41:01.007Z,101621.72
2022-09-12T08:41:35.320Z,101624.00
2022-09-12T08:42:07.310Z,101618.47
2022-09-12T08:42:55.506Z,101617.66
2022-09-12T08:43:52.022Z,101625.53
2022-09-12T08:44:49.595Z,101623.91
2022-09-12T08:45:34.670Z,101623.47
2022-09-12T08:46:18.379Z,101629.75
2022-09-12T08:47:10.758Z,101626.16
2022-09-12T08:47:45.438Z,101626.16
2022-09-12T08:48:16.883Z,101626.16
2022-09-12T08:48:48.710Z,101621.84
2022-09-12T08:49:31.066Z,101624.59
2022-09-12T08:50:08.777Z,101636.81
2022-09-12T08:50:49.251Z,101624.97
2022-09-12T08:51:21.988Z,101620.63
2022-09-12T08:51:55.167Z,101628.06
2022-09-12T08:52:35.923Z,101629.22
2022-09-12T08:53:15.918Z,101629.97
2022-09-12T08:53:51.287Z,101635.06
2022-09-12T08:54:28.775Z,101641.72
2022-09-12T08:55:04.110Z,101629.84
2022-09-12T08:55:38.164Z,101627.84
2022-09-12T08:56:11.769Z,101628.22
2022-09-12T08:56:43.391Z,101625.81
2022-09-12T08:57:15.406Z,101627.00
2022-09-12T08:57:46.821Z,101629.34
2022-09-12T08:58:22.571Z,101629.72
2022-09-12T08:58:53.975Z,101625.75